createdAt,value
2022-09-17T00:00:22.964Z,8.80
2022-09-17T00:01:23.130Z,12.60
2022-09-17T00:02:22.920Z,8.10
2022-09-17T00:03:22.899Z,10.50
2022-09-17T00:04:22.880Z,9.40
2022-09-17T00:05:22.855Z,7.90
2022-09-17T00:06:22.837Z,13.50
2022-09-17T00:07:22.811Z,12.40
2022-09-17T00:08:22.788Z,7.00
2022-09-17T00:09:22.885Z,14.60
2022-09-17T00:10:22.747Z,11.00
2022-09-17T00:11:22.728Z,10.10
2022-09-17T00:12:22.704Z,13.10
2022-09-17T00:13:22.683Z,11.00
2022-09-17T00:14:22.659Z,8.90
2022-09-17T00:15:22.641Z,9.10
2022-09-17T00:16:22.677Z,9.30
2022-09-17T00:17:22.596Z,9.40
2022-09-17T00:18:22.577Z,14.80
2022-09-17T00:19:22.557Z,8.70
2022-09-17T00:20:22.536Z,10.40
2022-09-17T00:21:22.513Z,7.40
2022-09-17T00:22:22.489Z,6.10
2022-09-17T00:23:22.510Z,9.80
2022-09-17T00:24:22.449Z,11.50
2022-09-17T00:25:22.539Z,11.20
2022-09-17T00:26:22.405Z,13.90
2022-09-17T00:27:22.383Z,13.20
2022-09-17T00:28:22.363Z,16.10
2022-09-17T00:29:22.341Z,10.70
2022-09-17T00:30:22.317Z,12.40
2022-09-17T00:31:22.374Z,8.70
2022-09-17T00:32:22.274Z,8.50
2022-09-17T00:33:22.255Z,8.50
2022-09-17T00:34:22.235Z,10.20
2022-09-17T00:35:22.214Z,12.40
2022-09-17T00:36:22.191Z,10.20
2022-09-17T00:37:22.169Z,7.10
2022-09-17T00:38:22.146Z,9.60
2022-09-17T00:39:22.127Z,10.10
2022-09-17T00:40:22.189Z,11.60
2022-09-17T00:41:22.198Z,12.10
2022-09-17T00:42:22.061Z,7.60
2022-09-17T00:43:22.039Z,12.80
2022-09-17T00:44:22.016Z,12.40
2022-09-17T00:45:21.996Z,9.80
2022-09-17T00:46:22.052Z,14.70
2022-09-17T00:47:21.955Z,12.10
2022-09-17T00:48:21.929Z,15.10
2022-09-17T00:49:21.911Z,13.90
2022-09-17T00:50:21.890Z,7.60
2022-09-17T00:51:21.869Z,9.10
2022-09-17T00:52:21.844Z,7.70
2022-09-17T00:53:21.825Z,10.70
2022-09-17T00:54:21.801Z,11.30
2022-09-17T00:55:21.782Z,13.30
2022-09-17T00:56:21.757Z,11.80
2022-09-17T00:57:21.858Z,13.20
2022-09-17T00:58:21.715Z,12.30
2022-09-17T00:59:21.696Z,11.30
2022-09-17T01:00:21.674Z,12.60
2022-09-17T01:01:21.767Z,13.10
2022-09-17T01:02:21.703Z,13.10
2022-09-17T01:03:21.611Z,13.80
2022-09-17T01:04:21.588Z,9.10
2022-09-17T01:05:21.567Z,10.60
2022-09-17T01:06:21.543Z,13.30
2022-09-17T01:07:21.524Z,11.00
2022-09-17T01:08:21.500Z,9.40
2022-09-17T01:09:21.479Z,7.70
2022-09-17T01:10:21.460Z,12.60
2022-09-17T01:11:21.440Z,10.30
2022-09-17T01:12:21.414Z,10.20
2022-09-17T01:13:21.513Z,11.60
2022-09-17T01:14:21.372Z,14.40
2022-09-17T01:15:21.351Z,13.50
2022-09-17T01:16:21.442Z,14.00
2022-09-17T01:17:21.309Z,9.30
2022-09-17T01:18:21.286Z,10.00
2022-09-17T01:19:21.266Z,9.50
2022-09-17T01:20:21.244Z,12.40
2022-09-17T01:21:21.225Z,8.40
2022-09-17T01:22:21.201Z,13.40
2022-09-17T01:23:21.184Z,9.60
2022-09-17T01:24:21.156Z,10.70
2022-09-17T01:25:21.135Z,12.10
2022-09-17T01:26:21.114Z,8.10
2022-09-17T01:27:21.095Z,12.20
2022-09-17T01:28:21.071Z,9.20
2022-09-17T01:29:21.169Z,14.10
2022-09-17T01:30:21.026Z,12.90
2022-09-17T01:31:21.046Z,18.20
2022-09-17T01:32:20.985Z,12.80
2022-09-17T01:33:20.965Z,15.70
2022-09-17T01:34:20.941Z,12.80
2022-09-17T01:35:20.923Z,13.90
2022-09-17T01:36:20.897Z,10.50
2022-09-17T01:37:20.877Z,10.00
2022-09-17T01:38:20.856Z,11.00
2022-09-17T01:39:20.837Z,15.80
2022-09-17T01:40:20.848Z,12.30
2022-09-17T01:41:20.793Z,19.10
2022-09-17T01:42:20.768Z,16.70
2022-09-17T01:43:20.748Z,12.50
2022-09-17T01:44:20.723Z,13.60
2022-09-17T01:45:20.828Z,8.70
2022-09-17T01:46:20.742Z,10.80
2022-09-17T01:47:21.247Z,12.70
2022-09-17T01:48:20.640Z,12.90
2022-09-17T01:49:20.617Z,11.00
2022-09-17T01:50:20.595Z,16.60
2022-09-17T01:51:20.574Z,16.20
2022-09-17T01:52:20.552Z,9.00
2022-09-17T01:53:20.533Z,15.50
2022-09-17T01:54:20.509Z,11.10
2022-09-17T01:55:20.489Z,12.80
2022-09-17T01:56:20.466Z,17.60
2022-09-17T01:57:20.444Z,12.70
2022-09-17T01:58:20.421Z,18.30
2022-09-17T01:59:20.402Z,10.20
2022-09-17T02:00:20.386Z,10.80
2022-09-17T02:01:20.538Z,11.20
2022-09-17T02:02:20.387Z,12.80
2022-09-17T02:03:20.315Z,11.90
2022-09-17T02:04:20.292Z,10.10
2022-09-17T02:05:20.271Z,14.10
2022-09-17T02:06:20.251Z,15.50
2022-09-17T02:07:20.229Z,15.70
2022-09-17T02:08:20.204Z,13.00
2022-09-17T02:09:20.185Z,12.60
2022-09-17T02:10:20.173Z,10.20
2022-09-17T02:11:20.147Z,15.60
2022-09-17T02:12:20.117Z,9.50
2022-09-17T02:13:20.098Z,9.30
2022-09-17T02:14:20.074Z,15.80
2022-09-17T02:15:20.054Z,15.20
2022-09-17T02:16:20.118Z,13.20
2022-09-17T02:17:20.127Z,13.90
2022-09-17T02:18:19.987Z,12.90
2022-09-17T02:19:19.965Z,12.00
2022-09-17T02:20:22.920Z,12.40
2022-09-17T02:21:19.925Z,15.50
2022-09-17T02:22:19.902Z,13.80
2022-09-17T02:23:19.883Z,13.10
2022-09-17T02:24:19.858Z,11.20
2022-09-17T02:25:19.838Z,11.90
2022-09-17T02:26:19.816Z,14.60
2022-09-17T02:27:19.795Z,14.40
2022-09-17T02:28:19.771Z,16.60
2022-09-17T02:29:19.750Z,10.90
2022-09-17T02:30:19.726Z,14.60
2022-09-17T02:31:19.765Z,13.50
2022-09-17T02:32:19.682Z,16.30
2022-09-17T02:33:19.779Z,12.40
2022-09-17T02:34:19.639Z,9.70
2022-09-17T02:35:19.620Z,12.80
2022-09-17T02:36:19.596Z,16.70
2022-09-17T02:37:19.582Z,14.30
2022-09-17T02:38:19.553Z,12.60
2022-09-17T02:39:19.534Z,11.90
2022-09-17T02:40:19.575Z,12.00
2022-09-17T02:41:19.490Z,14.80
2022-09-17T02:42:19.465Z,11.20
2022-09-17T02:43:19.447Z,12.00
2022-09-17T02:44:19.421Z,14.20
2022-09-17T02:45:19.401Z,16.70
2022-09-17T02:46:19.420Z,13.10
2022-09-17T02:47:19.359Z,16.20
2022-09-17T02:48:19.332Z,10.20
2022-09-17T02:49:19.430Z,13.60
2022-09-17T02:50:19.291Z,12.00
2022-09-17T02:51:19.269Z,13.00
2022-09-17T02:52:19.246Z,10.30
2022-09-17T02:53:19.225Z,10.80
2022-09-17T02:54:19.201Z,12.30
2022-09-17T02:55:19.183Z,13.50
2022-09-17T02:56:19.158Z,14.30
2022-09-17T02:57:19.138Z,9.20
2022-09-17T02:58:19.114Z,11.70
2022-09-17T02:59:19.097Z,18.60
2022-09-17T03:00:19.071Z,15.50
2022-09-17T03:01:19.175Z,10.30
2022-09-17T03:02:19.136Z,11.80
2022-09-17T03:03:19.008Z,9.30
2022-09-17T03:04:18.984Z,16.00
2022-09-17T03:05:19.093Z,11.20
2022-09-17T03:06:18.940Z,11.60
2022-09-17T03:07:18.920Z,12.30
2022-09-17T03:08:18.896Z,15.00
2022-09-17T03:09:18.875Z,13.20
2022-09-17T03:10:18.852Z,10.30
2022-09-17T03:11:18.834Z,12.90
2022-09-17T03:12:18.807Z,14.70
2022-09-17T03:13:18.788Z,14.70
2022-09-17T03:14:18.765Z,9.50
2022-09-17T03:15:18.744Z,10.50
2022-09-17T03:16:18.767Z,14.50
2022-09-17T03:17:18.701Z,16.30
2022-09-17T03:18:18.680Z,10.00
2022-09-17T03:19:18.656Z,14.10
2022-09-17T03:20:18.633Z,16.20
2022-09-17T03:21:18.732Z,14.60
2022-09-17T03:22:18.590Z,13.70
2022-09-17T03:23:18.569Z,14.50
2022-09-17T03:24:18.543Z,10.80
2022-09-17T03:25:18.523Z,13.50
2022-09-17T03:26:18.497Z,13.20
2022-09-17T03:27:18.481Z,12.70
2022-09-17T03:28:18.458Z,9.90
2022-09-17T03:29:18.434Z,13.90
2022-09-17T03:30:18.413Z,12.60
2022-09-17T03:31:18.511Z,21.00
2022-09-17T03:32:18.367Z,6.60
2022-09-17T03:33:18.346Z,13.80
2022-09-17T03:34:18.331Z,11.20
2022-09-17T03:35:18.303Z,11.00
2022-09-17T03:36:18.277Z,12.80
2022-09-17T03:37:18.372Z,13.50
2022-09-17T03:38:18.237Z,12.50
2022-09-17T03:39:18.216Z,12.00
2022-09-17T03:40:18.268Z,10.80
2022-09-17T03:41:18.172Z,12.10
2022-09-17T03:42:18.146Z,10.30
2022-09-17T03:43:18.126Z,21.70
2022-09-17T03:44:18.103Z,11.90
2022-09-17T03:45:18.084Z,10.50
2022-09-17T03:46:18.133Z,11.60
2022-09-17T03:47:18.038Z,13.60
2022-09-17T03:48:18.016Z,11.80
2022-09-17T03:49:17.994Z,9.40
2022-09-17T03:50:17.971Z,13.10
2022-09-17T03:51:17.952Z,12.10
2022-09-17T03:52:17.928Z,11.80
2022-09-17T03:53:18.026Z,11.80
2022-09-17T03:54:17.882Z,12.60
2022-09-17T03:55:17.862Z,12.80
2022-09-17T03:56:17.838Z,11.30
2022-09-17T03:57:17.817Z,11.00
2022-09-17T03:58:17.794Z,15.60
2022-09-17T03:59:17.773Z,10.80
2022-09-17T04:00:17.750Z,11.00
2022-09-17T04:01:17.808Z,13.20
2022-09-17T04:02:17.818Z,11.30
2022-09-17T04:03:17.687Z,10.50
2022-09-17T04:04:17.662Z,14.00
2022-09-17T04:05:17.644Z,12.30
2022-09-17T04:06:17.617Z,11.10
2022-09-17T04:07:17.598Z,8.80
2022-09-17T04:08:17.575Z,11.00
2022-09-17T04:09:17.664Z,14.10
2022-09-17T04:10:17.529Z,16.20
2022-09-17T04:11:17.508Z,12.90
2022-09-17T04:12:17.487Z,10.10
2022-09-17T04:13:17.466Z,12.00
2022-09-17T04:14:17.442Z,14.70
2022-09-17T04:15:17.422Z,11.60
2022-09-17T04:16:17.457Z,11.10
2022-09-17T04:17:17.453Z,9.10
2022-09-17T04:18:17.355Z,14.20
2022-09-17T04:19:17.333Z,10.40
2022-09-17T04:20:17.309Z,11.00
2022-09-17T04:21:17.289Z,15.80
2022-09-17T04:22:17.264Z,9.20
2022-09-17T04:23:17.247Z,10.10
2022-09-17T04:24:17.224Z,11.00
2022-09-17T04:25:17.312Z,11.40
2022-09-17T04:26:17.178Z,8.20
2022-09-17T04:27:17.155Z,10.20
2022-09-17T04:28:17.132Z,10.30
2022-09-17T04:29:17.113Z,9.50
2022-09-17T04:30:17.092Z,11.80
2022-09-17T04:31:17.082Z,13.60
2022-09-17T04:32:17.044Z,14.10
2022-09-17T04:33:17.032Z,11.70
2022-09-17T04:34:17.006Z,11.50
2022-09-17T04:35:16.977Z,7.80
2022-09-17T04:36:16.957Z,8.40
2022-09-17T04:37:16.935Z,12.30
2022-09-17T04:38:16.914Z,8.00
2022-09-17T04:39:16.891Z,8.70
2022-09-17T04:40:16.923Z,8.90
2022-09-17T04:41:16.959Z,18.00
2022-09-17T04:42:16.825Z,14.80
2022-09-17T04:43:16.800Z,13.60
2022-09-17T04:44:16.779Z,9.50
2022-09-17T04:45:16.759Z,10.50
2022-09-17T04:46:16.891Z,13.30
2022-09-17T04:47:16.713Z,10.90
2022-09-17T04:48:16.695Z,7.60
2022-09-17T04:49:16.668Z,7.50
2022-09-17T04:50:16.651Z,11.70
2022-09-17T04:51:16.623Z,11.10
2022-09-17T04:52:16.604Z,8.50
2022-09-17T04:53:16.583Z,11.00
2022-09-17T04:54:16.563Z,13.30
2022-09-17T04:55:16.535Z,13.40
2022-09-17T04:56:16.512Z,12.90
2022-09-17T04:57:16.603Z,13.90
2022-09-17T04:58:16.473Z,9.00
2022-09-17T04:59:16.447Z,8.80
2022-09-17T05:00:16.426Z,10.40
2022-09-17T05:01:16.480Z,12.20
2022-09-17T05:02:16.417Z,9.00
2022-09-17T05:03:16.357Z,8.90
2022-09-17T05:04:16.335Z,11.10
2022-09-17T05:05:16.315Z,12.30
2022-09-17T05:06:16.292Z,14.40
2022-09-17T05:07:16.270Z,11.20
2022-09-17T05:08:16.247Z,11.20
2022-09-17T05:09:16.222Z,9.60
2022-09-17T05:10:16.205Z,6.60
2022-09-17T05:11:16.184Z,10.60
2022-09-17T05:12:16.157Z,13.80
2022-09-17T05:13:16.248Z,7.70
2022-09-17T05:14:16.116Z,7.70
2022-09-17T05:15:16.091Z,8.90
2022-09-17T05:16:16.120Z,10.70
2022-09-17T05:17:16.046Z,11.20
2022-09-17T05:18:16.029Z,13.20
2022-09-17T05:19:16.004Z,6.30
2022-09-17T05:20:15.980Z,9.10
2022-09-17T05:21:15.958Z,10.70
2022-09-17T05:22:20.785Z,9.10
2022-09-17T05:23:15.914Z,10.10
2022-09-17T05:24:15.891Z,8.60
2022-09-17T05:25:15.867Z,11.10
2022-09-17T05:26:15.852Z,11.60
2022-09-17T05:27:15.824Z,14.10
2022-09-17T05:28:15.802Z,11.40
2022-09-17T05:29:15.899Z,11.90
2022-09-17T05:30:15.762Z,8.80
2022-09-17T05:31:15.816Z,11.80
2022-09-17T05:32:15.715Z,12.00
2022-09-17T05:33:15.692Z,13.90
2022-09-17T05:34:15.672Z,13.20
2022-09-17T05:35:15.648Z,8.90
2022-09-17T05:36:15.628Z,8.10
2022-09-17T05:37:15.604Z,10.60
2022-09-17T05:38:15.581Z,11.70
2022-09-17T05:39:15.557Z,10.20
2022-09-17T05:40:15.623Z,10.90
2022-09-17T05:41:15.514Z,9.10
2022-09-17T05:42:15.493Z,8.80
2022-09-17T05:43:15.472Z,10.30
2022-09-17T05:44:18.101Z,12.80
2022-09-17T05:45:15.538Z,8.10
2022-09-17T05:46:15.471Z,8.50
2022-09-17T05:47:15.381Z,7.90
2022-09-17T05:48:15.363Z,13.40
2022-09-17T05:49:15.334Z,12.30
2022-09-17T05:50:15.315Z,11.90
2022-09-17T05:51:15.294Z,8.90
2022-09-17T05:52:15.272Z,9.80
2022-09-17T05:53:15.249Z,7.50
2022-09-17T05:54:15.223Z,8.10
2022-09-17T05:55:15.202Z,16.50
2022-09-17T05:56:15.180Z,11.10
2022-09-17T05:57:15.157Z,14.20
2022-09-17T05:58:15.136Z,7.70
2022-09-17T05:59:15.118Z,11.10
2022-09-17T06:00:15.094Z,12.20
2022-09-17T06:01:15.185Z,15.20
2022-09-17T06:02:15.099Z,9.20
2022-09-17T06:03:15.071Z,8.10
2022-09-17T06:04:15.002Z,8.10
2022-09-17T06:05:14.978Z,8.60
2022-09-17T06:06:14.958Z,10.70
2022-09-17T06:07:14.937Z,10.50
2022-09-17T06:08:14.912Z,9.10
2022-09-17T06:09:14.889Z,7.20
2022-09-17T06:10:14.869Z,6.70
2022-09-17T06:11:14.848Z,12.10
2022-09-17T06:12:14.825Z,11.50
2022-09-17T06:13:14.799Z,9.20
2022-09-17T06:14:14.782Z,8.40
2022-09-17T06:15:14.759Z,10.00
2022-09-17T06:16:14.802Z,10.40
2022-09-17T06:17:17.025Z,7.00
2022-09-17T06:18:14.691Z,4.50
2022-09-17T06:19:14.667Z,8.10
2022-09-17T06:20:14.645Z,8.40
2022-09-17T06:21:14.637Z,8.10
2022-09-17T06:22:14.602Z,14.80
2022-09-17T06:23:16.065Z,10.10
2022-09-17T06:24:14.557Z,12.20
2022-09-17T06:25:14.532Z,10.70
2022-09-17T06:26:14.515Z,9.40
2022-09-17T06:27:14.491Z,15.40
2022-09-17T06:28:14.469Z,11.60
2022-09-17T06:29:14.443Z,13.20
2022-09-17T06:30:14.433Z,11.60
2022-09-17T06:31:14.481Z,14.10
2022-09-17T06:32:14.382Z,11.40
2022-09-17T06:33:14.475Z,8.40
2022-09-17T06:34:14.340Z,9.90
2022-09-17T06:35:14.328Z,14.90
2022-09-17T06:36:14.798Z,8.50
2022-09-17T06:37:14.267Z,13.10
2022-09-17T06:38:14.247Z,10.80
2022-09-17T06:39:14.225Z,8.70
2022-09-17T06:40:14.333Z,10.00
2022-09-17T06:41:14.179Z,12.90
2022-09-17T06:42:14.162Z,10.00
2022-09-17T06:43:14.135Z,15.40
2022-09-17T06:44:14.111Z,9.90
2022-09-17T06:45:16.771Z,7.10
2022-09-17T06:46:14.086Z,8.30
2022-09-17T06:47:14.045Z,8.40
2022-09-17T06:48:14.026Z,8.40
2022-09-17T06:49:14.148Z,11.10
2022-09-17T06:50:13.981Z,12.10
2022-09-17T06:51:13.955Z,9.50
2022-09-17T06:52:13.935Z,10.70
2022-09-17T06:53:13.914Z,10.80
2022-09-17T06:54:13.895Z,7.80
2022-09-17T06:55:13.871Z,8.20
2022-09-17T06:56:13.847Z,8.30
2022-09-17T06:57:13.825Z,10.00
2022-09-17T06:58:13.885Z,11.10
2022-09-17T06:59:13.779Z,5.40
2022-09-17T07:00:13.758Z,9.50
2022-09-17T07:01:13.797Z,9.80
2022-09-17T07:02:13.746Z,9.70
2022-09-17T07:03:13.694Z,4.00
2022-09-17T07:04:13.672Z,7.50
2022-09-17T07:05:13.761Z,11.00
2022-09-17T07:06:13.628Z,7.10
2022-09-17T07:07:13.602Z,9.40
2022-09-17T07:08:13.580Z,11.60
2022-09-17T07:09:13.557Z,9.20
2022-09-17T07:10:13.537Z,6.20
2022-09-17T07:11:13.513Z,7.80
2022-09-17T07:12:13.494Z,10.50
2022-09-17T07:13:13.469Z,7.30
2022-09-17T07:14:13.455Z,11.50
2022-09-17T07:15:13.428Z,11.00
2022-09-17T07:16:13.482Z,8.40
2022-09-17T07:17:13.382Z,13.60
2022-09-17T07:18:13.360Z,6.70
2022-09-17T07:19:14.931Z,9.20
2022-09-17T07:20:13.317Z,10.10
2022-09-17T07:21:13.413Z,7.80
2022-09-17T07:22:13.272Z,10.90
2022-09-17T07:23:13.251Z,9.50
2022-09-17T07:24:13.227Z,9.00
2022-09-17T07:25:13.202Z,8.50
2022-09-17T07:26:13.185Z,8.70
2022-09-17T07:27:13.161Z,8.10
2022-09-17T07:28:13.149Z,10.70
2022-09-17T07:29:13.116Z,8.90
2022-09-17T07:30:13.095Z,7.40
2022-09-17T07:31:16.418Z,11.40
2022-09-17T07:32:13.052Z,14.70
2022-09-17T07:33:13.030Z,8.70
2022-09-17T07:34:13.004Z,10.40
2022-09-17T07:35:12.982Z,11.10
2022-09-17T07:36:12.979Z,7.80
2022-09-17T07:37:13.049Z,8.60
2022-09-17T07:38:12.919Z,8.60
2022-09-17T07:39:12.896Z,8.40
2022-09-17T07:40:12.955Z,10.90
2022-09-17T07:41:12.852Z,9.00
2022-09-17T07:42:12.829Z,9.40
2022-09-17T07:43:12.806Z,10.70
2022-09-17T07:44:12.785Z,6.70
2022-09-17T07:45:12.761Z,8.30
2022-09-17T07:46:12.770Z,11.60
2022-09-17T07:47:12.716Z,10.30
2022-09-17T07:48:12.700Z,7.90
2022-09-17T07:49:12.673Z,5.80
2022-09-17T07:50:12.654Z,9.10
2022-09-17T07:51:12.631Z,9.20
2022-09-17T07:52:12.610Z,10.80
2022-09-17T07:53:12.704Z,7.90
2022-09-17T07:54:12.564Z,6.90
2022-09-17T07:55:12.541Z,9.30
2022-09-17T07:56:12.525Z,15.90
2022-09-17T07:57:12.497Z,10.40
2022-09-17T07:58:12.478Z,8.10
2022-09-17T07:59:12.454Z,6.50
2022-09-17T08:00:12.433Z,6.40
2022-09-17T08:01:12.412Z,13.00
2022-09-17T08:02:12.543Z,8.50
2022-09-17T08:03:12.406Z,8.10
2022-09-17T08:04:12.679Z,11.50
2022-09-17T08:05:12.324Z,9.20
2022-09-17T08:06:12.302Z,9.60
2022-09-17T08:07:12.280Z,6.60
2022-09-17T08:08:12.328Z,10.00
2022-09-17T08:09:12.349Z,7.90
2022-09-17T08:10:12.215Z,8.20
2022-09-17T08:11:12.192Z,13.30
2022-09-17T08:12:12.184Z,6.20
2022-09-17T08:13:12.148Z,9.30
2022-09-17T08:14:12.128Z,6.00
2022-09-17T08:15:12.107Z,7.80
2022-09-17T08:16:12.177Z,8.60
2022-09-17T08:17:12.061Z,13.70
2022-09-17T08:18:12.043Z,7.20
2022-09-17T08:19:12.025Z,9.70
2022-09-17T08:20:12.005Z,6.50
2022-09-17T08:21:11.986Z,10.40
2022-09-17T08:22:11.951Z,7.20
2022-09-17T08:23:11.930Z,6.30
2022-09-17T08:24:11.911Z,7.40
2022-09-17T08:25:12.001Z,9.90
2022-09-17T08:26:11.865Z,10.30
2022-09-17T08:27:11.843Z,8.50
2022-09-17T08:28:11.819Z,11.30
2022-09-17T08:29:11.798Z,8.00
2022-09-17T08:30:11.783Z,9.60
2022-09-17T08:31:11.778Z,8.40
2022-09-17T08:32:11.734Z,6.30
2022-09-17T08:33:11.719Z,7.50
2022-09-17T08:34:11.696Z,8.00
2022-09-17T08:35:11.670Z,8.80
2022-09-17T08:36:11.651Z,5.90
2022-09-17T08:37:11.623Z,6.20
2022-09-17T08:38:11.603Z,6.50
2022-09-17T08:39:11.581Z,11.00
2022-09-17T08:40:11.626Z,10.30
2022-09-17T08:41:11.655Z,6.50
2022-09-17T08:42:11.516Z,5.30
2022-09-17T08:43:11.495Z,5.40
2022-09-17T08:44:11.472Z,6.20
2022-09-17T08:45:11.451Z,6.90
2022-09-17T08:46:11.517Z,6.40
2022-09-17T08:47:11.408Z,8.60
2022-09-17T08:48:11.383Z,9.70
2022-09-17T08:49:11.363Z,9.20
2022-09-17T08:50:11.342Z,5.80
2022-09-17T08:51:11.325Z,6.00
2022-09-17T08:52:11.298Z,8.60
2022-09-17T08:53:11.279Z,7.40
2022-09-17T08:54:11.257Z,6.30
2022-09-17T08:55:11.234Z,5.10
2022-09-17T08:56:11.215Z,4.40
2022-09-17T08:57:11.309Z,9.10
2022-09-17T08:58:11.273Z,4.70
2022-09-17T08:59:11.148Z,9.00
2022-09-17T09:00:11.129Z,5.00
2022-09-17T09:01:11.112Z,7.10
2022-09-17T09:02:11.292Z,2.90
2022-09-17T09:03:11.408Z,4.90
2022-09-17T09:04:11.039Z,6.90
2022-09-17T09:05:11.019Z,7.50
2022-09-17T09:06:11.262Z,7.90
2022-09-17T09:07:10.977Z,9.40
2022-09-17T09:08:10.953Z,4.50
2022-09-17T09:09:10.931Z,7.10
2022-09-17T09:10:10.911Z,5.60
2022-09-17T09:11:10.890Z,4.90
2022-09-17T09:12:10.865Z,6.00
2022-09-17T09:13:10.963Z,6.00
2022-09-17T09:14:10.827Z,5.90
2022-09-17T09:15:10.806Z,5.10
2022-09-17T09:16:10.817Z,7.50
2022-09-17T09:17:10.762Z,5.40
2022-09-17T09:18:10.736Z,5.40
2022-09-17T09:19:13.390Z,8.60
2022-09-17T09:20:10.697Z,6.00
2022-09-17T09:21:10.674Z,5.60
2022-09-17T09:22:10.650Z,4.60
2022-09-17T09:23:10.633Z,7.40
2022-09-17T09:24:10.608Z,3.70
2022-09-17T09:25:10.589Z,6.60
2022-09-17T09:26:10.569Z,13.00
2022-09-17T09:27:10.549Z,5.90
2022-09-17T09:28:10.524Z,3.80
2022-09-17T09:29:10.623Z,3.70
2022-09-17T09:30:10.482Z,4.60
2022-09-17T09:31:10.560Z,6.80
2022-09-17T09:32:16.162Z,7.50
2022-09-17T09:33:10.417Z,6.20
2022-09-17T09:34:10.396Z,5.20
2022-09-17T09:35:10.376Z,6.30
2022-09-17T09:36:10.351Z,5.80
2022-09-17T09:37:10.335Z,5.70
2022-09-17T09:38:10.312Z,5.00
2022-09-17T09:39:10.290Z,6.70
2022-09-17T09:40:10.332Z,5.00
2022-09-17T09:41:10.249Z,4.30
2022-09-17T09:42:10.227Z,5.90
2022-09-17T09:43:10.205Z,5.70
2022-09-17T09:44:10.181Z,4.20
2022-09-17T09:45:10.331Z,3.50
2022-09-17T09:46:10.184Z,4.60
2022-09-17T09:47:10.119Z,5.30
2022-09-17T09:48:10.150Z,6.70
2022-09-17T09:49:10.081Z,7.90
2022-09-17T09:50:10.054Z,5.50
2022-09-17T09:51:10.037Z,4.60
2022-09-17T09:52:10.018Z,3.10
2022-09-17T09:53:09.993Z,2.50
2022-09-17T09:54:09.971Z,6.00
2022-09-17T09:55:09.952Z,4.90
2022-09-17T09:56:09.928Z,5.00
2022-09-17T09:57:09.914Z,4.70
2022-09-17T09:58:09.886Z,4.60
2022-09-17T09:59:09.868Z,3.80
2022-09-17T10:00:09.855Z,4.40
2022-09-17T10:01:09.945Z,5.30
2022-09-17T10:02:09.909Z,4.40
2022-09-17T10:03:09.783Z,4.90
2022-09-17T10:04:09.761Z,6.70
2022-09-17T10:05:09.738Z,2.90
2022-09-17T10:06:09.727Z,7.10
2022-09-17T10:07:09.697Z,4.60
2022-09-17T10:08:09.677Z,5.90
2022-09-17T10:09:09.658Z,3.00
2022-09-17T10:10:09.634Z,3.80
2022-09-17T10:11:09.624Z,6.10
2022-09-17T10:12:09.592Z,4.90
2022-09-17T10:13:09.572Z,3.40
2022-09-17T10:14:09.994Z,4.20
2022-09-17T10:15:09.530Z,3.20
2022-09-17T10:16:09.557Z,4.20
2022-09-17T10:17:09.600Z,2.60
2022-09-17T10:18:09.466Z,4.50
2022-09-17T10:19:09.446Z,5.60
2022-09-17T10:20:09.421Z,5.50
2022-09-17T10:21:09.407Z,2.90
2022-09-17T10:22:09.379Z,3.50
2022-09-17T10:23:09.363Z,4.80
2022-09-17T10:24:09.340Z,4.80
2022-09-17T10:25:09.324Z,3.60
2022-09-17T10:26:09.299Z,3.20
2022-09-17T10:27:09.279Z,2.40
2022-09-17T10:28:09.255Z,4.30
2022-09-17T10:29:09.233Z,3.50
2022-09-17T10:30:09.214Z,2.10
2022-09-17T10:31:09.310Z,5.40
2022-09-17T10:32:09.172Z,6.20
2022-09-17T10:33:09.265Z,5.10
2022-09-17T10:34:09.131Z,3.30
2022-09-17T10:35:09.110Z,5.10
2022-09-17T10:36:09.087Z,3.10
2022-09-17T10:37:09.067Z,1.80
2022-09-17T10:38:09.044Z,2.40
2022-09-17T10:39:09.028Z,2.60
2022-09-17T10:40:09.078Z,6.20
2022-09-17T10:41:08.984Z,4.40
2022-09-17T10:42:08.962Z,4.00
2022-09-17T10:43:08.943Z,5.70
2022-09-17T10:44:08.936Z,4.00
2022-09-17T10:45:08.901Z,4.40
2022-09-17T10:46:08.944Z,2.90
2022-09-17T10:47:08.863Z,2.40
2022-09-17T10:48:08.838Z,3.80
2022-09-17T10:49:08.934Z,5.20
2022-09-17T10:50:08.804Z,2.90
2022-09-17T10:51:08.779Z,4.60
2022-09-17T10:52:08.754Z,3.20
2022-09-17T10:53:08.738Z,3.00
2022-09-17T10:54:08.717Z,7.10
2022-09-17T10:55:08.694Z,4.00
2022-09-17T10:56:08.674Z,3.30
2022-09-17T10:57:08.653Z,6.50
2022-09-17T10:58:08.690Z,3.30
2022-09-17T10:59:08.614Z,2.90
2022-09-17T11:00:08.591Z,5.70
2022-09-17T11:01:08.573Z,3.90
2022-09-17T11:02:08.696Z,3.30
2022-09-17T11:03:08.539Z,2.20
2022-09-17T11:04:08.512Z,3.70
2022-09-17T11:05:08.603Z,3.50
2022-09-17T11:06:12.254Z,3.70
2022-09-17T11:07:08.449Z,5.50
2022-09-17T11:08:08.425Z,3.60
2022-09-17T11:09:08.409Z,3.90
2022-09-17T11:10:08.386Z,4.50
2022-09-17T11:11:08.365Z,3.30
2022-09-17T11:12:08.346Z,6.20
2022-09-17T11:13:08.324Z,3.90
2022-09-17T11:14:08.306Z,2.80
2022-09-17T11:15:08.285Z,3.70
2022-09-17T11:16:08.294Z,3.00
2022-09-17T11:17:08.240Z,4.00
2022-09-17T11:18:08.221Z,3.40
2022-09-17T11:19:08.201Z,3.00
2022-09-17T11:20:08.177Z,5.20
2022-09-17T11:21:08.271Z,3.40
2022-09-17T11:22:08.137Z,4.20
2022-09-17T11:23:08.119Z,3.50
2022-09-17T11:24:08.093Z,2.60
2022-09-17T11:25:08.075Z,5.00
2022-09-17T11:26:08.052Z,2.80
2022-09-17T11:27:08.034Z,4.20
2022-09-17T11:28:08.014Z,4.50
2022-09-17T11:29:08.043Z,5.00
2022-09-17T11:30:07.968Z,5.40
2022-09-17T11:31:08.011Z,4.90
2022-09-17T11:32:07.924Z,2.70
2022-09-17T11:33:07.907Z,4.20
2022-09-17T11:34:07.886Z,4.40
2022-09-17T11:35:07.863Z,3.60
2022-09-17T11:36:07.844Z,2.70
2022-09-17T11:37:07.943Z,4.10
2022-09-17T11:38:07.803Z,3.00
2022-09-17T11:39:07.784Z,3.50
2022-09-17T11:40:07.816Z,2.90
2022-09-17T11:41:07.740Z,5.40
2022-09-17T11:42:07.718Z,5.00
2022-09-17T11:43:07.700Z,3.70
2022-09-17T11:44:07.677Z,3.60
2022-09-17T11:45:07.660Z,7.40
2022-09-17T11:46:07.683Z,7.70
2022-09-17T11:47:07.615Z,2.30
2022-09-17T11:48:07.592Z,4.20
2022-09-17T11:49:07.573Z,3.80
2022-09-17T11:50:07.552Z,6.00
2022-09-17T11:51:07.534Z,3.00
2022-09-17T11:52:07.510Z,3.20
2022-09-17T11:53:07.606Z,5.80
2022-09-17T11:54:07.471Z,3.00
2022-09-17T11:55:07.449Z,6.10
2022-09-17T11:56:07.427Z,4.00
2022-09-17T11:57:09.779Z,3.40
2022-09-17T11:58:07.389Z,3.50
2022-09-17T11:59:07.365Z,4.00
2022-09-17T12:00:07.344Z,6.10
2022-09-17T12:01:07.325Z,3.80
2022-09-17T12:02:07.489Z,6.70
2022-09-17T12:03:07.377Z,3.30
2022-09-17T12:04:07.260Z,3.90
2022-09-17T12:05:07.242Z,3.30
2022-09-17T12:06:07.219Z,3.30
2022-09-17T12:07:07.201Z,3.10
2022-09-17T12:08:09.302Z,2.00
2022-09-17T12:09:07.272Z,4.50
2022-09-17T12:10:07.137Z,1.60
2022-09-17T12:11:07.125Z,3.60
2022-09-17T12:12:07.094Z,2.40
2022-09-17T12:13:07.147Z,4.10
2022-09-17T12:14:07.060Z,2.50
2022-09-17T12:15:07.036Z,4.40
2022-09-17T12:16:07.123Z,2.80
2022-09-17T12:17:06.995Z,5.10
2022-09-17T12:18:30.567Z,5.50
2022-09-17T12:19:06.954Z,4.90
2022-09-17T12:20:06.933Z,8.20
2022-09-17T12:21:06.914Z,3.40
2022-09-17T12:22:06.895Z,4.10
2022-09-17T12:23:06.875Z,3.80
2022-09-17T12:24:06.849Z,3.30
2022-09-17T12:25:06.952Z,2.50
2022-09-17T12:26:06.811Z,3.50
